sensor_id;sensor_type;location;lat;lon;timestamp;pressure;altitude;pressure_sealevel;temperature;humidity
6899;BME280;3488;42.616;23.350;2023-02-12T00:00:31;62106.16;;;1.07;41.61
6899;BME280;3488;42.616;23.350;2023-02-12T00:02:59;62105.03;;;1.01;42.70
6899;BME280;3488;42.616;23.350;2023-02-12T00:05:26;62085.78;;;0.92;43.18
6899;BME280;3488;42.616;23.350;2023-02-12T00:07:53;62089.75;;;0.91;43.24
6899;BME280;3488;42.616;23.350;2023-02-12T00:10:19;62092.22;;;0.89;42.90
6899;BME280;3488;42.616;23.350;2023-02-12T00:12:48;62087.19;;;0.89;43.03
6899;BME280;3488;42.616;23.350;2023-02-12T00:15:15;62093.75;;;0.90;42.54
6899;BME280;3488;42.616;23.350;2023-02-12T00:17:42;62088.72;;;0.90;42.94
6899;BME280;3488;42.616;23.350;2023-02-12T00:20:10;62098.31;;;0.92;43.26
6899;BME280;3488;42.616;23.350;2023-02-12T00:22:37;62088.72;;;0.90;42.80
6899;BME280;3488;42.616;23.350;2023-02-12T00:25:04;62104.44;;;0.98;42.85
6899;BME280;3488;42.616;23.350;2023-02-12T00:27:31;62106.69;;;1.08;41.96
6899;BME280;3488;42.616;23.350;2023-02-12T00:30:00;62108.75;;;1.10;42.18
6899;BME280;3488;42.616;23.350;2023-02-12T00:32:27;62114.25;;;1.10;42.47
6899;BME280;3488;42.616;23.350;2023-02-12T00:34:54;62107.19;;;1.08;42.50
6899;BME280;3488;42.616;23.350;2023-02-12T00:37:21;62112.31;;;1.13;42.72
6899;BME280;3488;42.616;23.350;2023-02-12T00:39:48;62114.88;;;1.16;42.67
6899;BME280;3488;42.616;23.350;2023-02-12T00:42:14;62110.22;;;1.09;43.04
6899;BME280;3488;42.616;23.350;2023-02-12T00:44:41;62103.53;;;1.02;43.52
6899;BME280;3488;42.616;23.350;2023-02-12T00:47:09;62095.34;;;0.94;43.55
6899;BME280;3488;42.616;23.350;2023-02-12T00:49:36;62086.19;;;0.88;43.61
6899;BME280;3488;42.616;23.350;2023-02-12T00:52:04;62094.25;;;0.91;43.76
6899;BME280;3488;42.616;23.350;2023-02-12T00:54:31;62089.69;;;0.89;43.39
6899;BME280;3488;42.616;23.350;2023-02-12T00:56:58;62098.94;;;0.98;42.81
6899;BME280;3488;42.616;23.350;2023-02-12T00:59:25;62106.16;;;1.07;42.72
6899;BME280;3488;42.616;23.350;2023-02-12T01:01:54;62110.16;;;1.06;42.59
6899;BME280;3488;42.616;23.350;2023-02-12T01:04:23;62101.56;;;1.03;42.54
6899;BME280;3488;42.616;23.350;2023-02-12T01:06:50;62094.88;;;0.96;43.64
6899;BME280;3488;42.616;23.350;2023-02-12T01:09:17;62093.69;;;0.88;43.93
6899;BME280;3488;42.616;23.350;2023-02-12T01:11:44;62088.72;;;0.90;43.54
6899;BME280;3488;42.616;23.350;2023-02-12T01:14:11;62096.44;;;0.98;43.52
6899;BME280;3488;42.616;23.350;2023-02-12T01:16:38;62090.78;;;0.92;44.58
6899;BME280;3488;42.616;23.350;2023-02-12T01:19:05;62084.13;;;0.86;44.45
6899;BME280;3488;42.616;23.350;2023-02-12T01:21:34;62090.72;;;0.90;44.14
6899;BME280;3488;42.616;23.350;2023-02-12T01:24:01;62089.75;;;0.91;44.27
6899;BME280;3488;42.616;23.350;2023-02-12T01:26:29;62090.25;;;0.92;44.83
6899;BME280;3488;42.616;23.350;2023-02-12T01:28:59;62082.59;;;0.84;44.54
6899;BME280;3488;42.616;23.350;2023-02-12T01:31:29;62083.03;;;0.82;45.14
6899;BME280;3488;42.616;23.350;2023-02-12T01:33:58;62087.66;;;0.87;45.19
6899;BME280;3488;42.616;23.350;2023-02-12T01:36:26;62084.63;;;0.86;45.40
6899;BME280;3488;42.616;23.350;2023-02-12T01:38:55;62092.78;;;0.92;45.26
6899;BME280;3488;42.616;23.350;2023-02-12T01:41:25;62083.59;;;0.85;45.61
6899;BME280;3488;42.616;23.350;2023-02-12T01:44:14;62090.78;;;0.92;45.59
6899;BME280;3488;42.616;23.350;2023-02-12T01:46:42;62098.34;;;0.95;45.62
6899;BME280;3488;42.616;23.350;2023-02-12T01:49:13;62094.31;;;0.93;45.48
6899;BME280;3488;42.616;23.350;2023-02-12T01:51:41;62095.41;;;0.97;45.76
6899;BME280;3488;42.616;23.350;2023-02-12T01:54:11;62095.34;;;0.94;46.22
6899;BME280;3488;42.616;23.350;2023-02-12T01:56:41;62080.97;;;0.80;46.53
6899;BME280;3488;42.616;23.350;2023-02-12T01:59:08;62081.50;;;0.81;46.78
6899;BME280;3488;42.616;23.350;2023-02-12T02:01:36;62082.63;;;0.87;46.56
6899;BME280;3488;42.616;23.350;2023-02-12T02:04:07;62084.63;;;0.86;47.20
6899;BME280;3488;42.616;23.350;2023-02-12T02:06:40;62082.00;;;0.81;47.49
6899;BME280;3488;42.616;23.350;2023-02-12T02:09:10;62078.94;;;0.78;48.12
6899;BME280;3488;42.616;23.350;2023-02-12T02:11:37;62074.31;;;0.74;48.47
6899;BME280;3488;42.616;23.350;2023-02-12T02:14:22;62078.28;;;0.73;48.83
6899;BME280;3488;42.616;23.350;2023-02-12T02:17:12;62071.13;;;0.66;48.94
6899;BME280;3488;42.616;23.350;2023-02-12T02:22:37;62072.84;;;0.75;49.26
6899;BME280;3488;42.616;23.350;2023-02-12T02:25:33;62074.81;;;0.74;49.47
6899;BME280;3488;42.616;23.350;2023-02-12T02:28:13;62084.06;;;0.83;49.88
6899;BME280;3488;42.616;23.350;2023-02-12T02:30:54;62089.75;;;0.91;50.08
6899;BME280;3488;42.616;23.350;2023-02-12T02:33:35;62093.81;;;0.93;50.11
6899;BME280;3488;42.616;23.350;2023-02-12T02:36:13;62099.91;;;0.96;50.53
6899;BME280;3488;42.616;23.350;2023-02-12T02:38:44;62104.41;;;0.96;50.83
6899;BME280;3488;42.616;23.350;2023-02-12T02:41:21;62100.53;;;1.02;50.72
6899;BME280;3488;42.616;23.350;2023-02-12T02:43:51;62085.09;;;0.84;51.39
6899;BME280;3488;42.616;23.350;2023-02-12T02:46:26;62086.09;;;0.85;51.83
6899;BME280;3488;42.616;23.350;2023-02-12T02:48:58;62091.69;;;0.88;52.08
6899;BME280;3488;42.616;23.350;2023-02-12T02:51:31;62084.56;;;0.84;52.14
6899;BME280;3488;42.616;23.350;2023-02-12T02:54:03;62074.25;;;0.71;52.54
6899;BME280;3488;42.616;23.350;2023-02-12T02:56:34;62072.28;;;0.72;52.65
6899;BME280;3488;42.616;23.350;2023-02-12T02:59:04;62063.56;;;0.63;53.61
6899;BME280;3488;42.616;23.350;2023-02-12T03:01:38;62049.31;;;0.54;53.54
6899;BME280;3488;42.616;23.350;2023-02-12T03:04:09;62057.91;;;0.58;53.29
6899;BME280;3488;42.616;23.350;2023-02-12T03:06:41;62057.38;;;0.57;53.68
6899;BME280;3488;42.616;23.350;2023-02-12T03:09:15;62052.72;;;0.50;54.18
6899;BME280;3488;42.616;23.350;2023-02-12T03:11:46;62064.56;;;0.64;53.99
6899;BME280;3488;42.616;23.350;2023-02-12T03:14:19;62063.00;;;0.60;54.03
6899;BME280;3488;42.616;23.350;2023-02-12T03:16:53;62049.19;;;0.49;54.41
6899;BME280;3488;42.616;23.350;2023-02-12T03:19:25;62068.69;;;0.68;54.44
6899;BME280;3488;42.616;23.350;2023-02-12T03:21:57;62079.97;;;0.79;54.29
6899;BME280;3488;42.616;23.350;2023-02-12T03:24:30;62082.53;;;0.82;54.69
6899;BME280;3488;42.616;23.350;2023-02-12T03:27:05;62080.53;;;0.82;55.10
6899;BME280;3488;42.616;23.350;2023-02-12T03:29:33;62085.09;;;0.84;55.20
6899;BME280;3488;42.616;23.350;2023-02-12T03:32:16;62087.19;;;0.89;54.42
6899;BME280;3488;42.616;23.350;2023-02-12T03:34:53;62104.06;;;1.03;54.00
6899;BME280;3488;42.616;23.350;2023-02-12T03:37:27;62113.28;;;1.12;54.26
6899;BME280;3488;42.616;23.350;2023-02-12T03:39:57;62120.47;;;1.19;53.42
6899;BME280;3488;42.616;23.350;2023-02-12T03:42:34;62120.94;;;1.17;53.65
6899;BME280;3488;42.616;23.350;2023-02-12T03:45:09;62126.56;;;1.23;51.87
6899;BME280;3488;42.616;23.350;2023-02-12T03:47:43;62127.03;;;1.21;52.46
6899;BME280;3488;42.616;23.350;2023-02-12T03:50:14;62125.03;;;1.21;52.67
6899;BME280;3488;42.616;23.350;2023-02-12T03:52:43;62124.53;;;1.21;52.35
6899;BME280;3488;42.616;23.350;2023-02-12T03:55:13;62134.78;;;1.31;51.16
6899;BME280;3488;42.616;23.350;2023-02-12T03:57:41;62139.38;;;1.35;51.00
6899;BME280;3488;42.616;23.350;2023-02-12T04:00:14;62145.59;;;1.44;50.37
6899;BME280;3488;42.616;23.350;2023-02-12T04:02:45;62142.00;;;1.40;50.57
6899;BME280;3488;42.616;23.350;2023-02-12T04:05:17;62136.88;;;1.35;52.12
6899;BME280;3488;42.616;23.350;2023-02-12T04:07:45;62138.41;;;1.37;51.53
6899;BME280;3488;42.616;23.350;2023-02-12T04:10:13;62125.94;;;1.17;52.86
6899;BME280;3488;42.616;23.350;2023-02-12T04:12:46;62117.47;;;1.18;52.68
6899;BME280;3488;42.616;23.350;2023-02-12T04:15:34;62104.00;;;1.00;54.16
6899;BME280;3488;42.616;23.350;2023-02-12T04:18:09;62079.00;;;0.81;54.39
6899;BME280;3488;42.616;23.350;2023-02-12T04:20:47;62095.41;;;0.97;54.66
6899;BME280;3488;42.616;23.350;2023-02-12T04:23:23;62081.50;;;0.81;55.31
6899;BME280;3488;42.616;23.350;2023-02-12T04:26:00;62061.50;;;0.61;56.32
6899;BME280;3488;42.616;23.350;2023-02-12T04:28:38;62043.56;;;0.44;57.17
6899;BME280;3488;42.616;23.350;2023-02-12T04:31:16;62052.25;;;0.52;57.40
6899;BME280;3488;42.616;23.350;2023-02-12T04:33:55;62042.53;;;0.43;57.15
6899;BME280;3488;42.616;23.350;2023-02-12T04:36:30;62024.19;;;0.30;57.99
6899;BME280;3488;42.616;23.350;2023-02-12T04:39:02;62034.31;;;0.35;58.52
6899;BME280;3488;42.616;23.350;2023-02-12T04:41:32;62023.56;;;0.24;59.52
6899;BME280;3488;42.616;23.350;2023-02-12T04:44:13;62024.16;;;0.27;60.04
6899;BME280;3488;42.616;23.350;2023-02-12T04:46:40;62030.81;;;0.34;59.52
6899;BME280;3488;42.616;23.350;2023-02-12T04:49:13;62020.00;;;0.21;60.21
6899;BME280;3488;42.616;23.350;2023-02-12T04:51:40;62024.59;;;0.25;60.52
6899;BME280;3488;42.616;23.350;2023-02-12T04:54:08;62015.44;;;0.19;60.03
6899;BME280;3488;42.616;23.350;2023-02-12T04:56:35;62011.28;;;0.12;60.67
6899;BME280;3488;42.616;23.350;2023-02-12T04:59:02;61990.78;;;-0.08;61.60
6899;BME280;3488;42.616;23.350;2023-02-12T05:01:29;62015.31;;;0.14;60.58
6899;BME280;3488;42.616;23.350;2023-02-12T05:03:56;62011.72;;;0.10;60.85
6899;BME280;3488;42.616;23.350;2023-02-12T05:06:24;61996.97;;;0.00;61.88
6899;BME280;3488;42.616;23.350;2023-02-12T05:08:51;62002.63;;;0.06;61.09
6899;BME280;3488;42.616;23.350;2023-02-12T05:11:18;62012.34;;;0.16;59.34
6899;BME280;3488;42.616;23.350;2023-02-12T05:13:47;62033.31;;;0.34;57.75
6899;BME280;3488;42.616;23.350;2023-02-12T05:16:14;62066.56;;;0.64;54.93
6899;BME280;3488;42.616;23.350;2023-02-12T05:18:42;62087.06;;;0.84;53.54
6899;BME280;3488;42.616;23.350;2023-02-12T05:21:09;62095.34;;;0.94;53.18
6899;BME280;3488;42.616;23.350;2023-02-12T05:23:39;62097.91;;;0.97;53.62
6899;BME280;3488;42.616;23.350;2023-02-12T05:26:09;62096.44;;;0.98;53.72
6899;BME280;3488;42.616;23.350;2023-02-12T05:28:36;62085.03;;;0.82;55.17
6899;BME280;3488;42.616;23.350;2023-02-12T05:31:06;62065.16;;;0.67;59.09
6899;BME280;3488;42.616;23.350;2023-02-12T05:33:34;62056.41;;;0.59;63.05
6899;BME280;3488;42.616;23.350;2023-02-12T05:36:05;62039.97;;;0.40;71.79
6899;BME280;3488;42.616;23.350;2023-02-12T05:38:33;62034.38;;;0.37;74.55
6899;BME280;3488;42.616;23.350;2023-02-12T05:41:03;62019.47;;;0.20;76.17
6899;BME280;3488;42.616;23.350;2023-02-12T05:43:30;62016.53;;;0.22;76.22
6899;BME280;3488;42.616;23.350;2023-02-12T05:45:58;62012.34;;;0.16;74.24
6899;BME280;3488;42.616;23.350;2023-02-12T05:48:26;62033.25;;;0.31;72.15
6899;BME280;3488;42.616;23.350;2023-02-12T05:50:54;62028.19;;;0.29;70.20
6899;BME280;3488;42.616;23.350;2023-02-12T05:53:21;62028.22;;;0.31;70.27
6899;BME280;3488;42.616;23.350;2023-02-12T05:55:48;62022.03;;;0.23;71.43
6899;BME280;3488;42.616;23.350;2023-02-12T05:58:17;62026.09;;;0.24;73.89
6899;BME280;3488;42.616;23.350;2023-02-12T06:00:44;62026.19;;;0.29;76.42
6899;BME280;3488;42.616;23.350;2023-02-12T06:03:11;62026.25;;;0.32;77.37
6899;BME280;3488;42.616;23.350;2023-02-12T06:05:38;62029.78;;;0.33;77.99
6899;BME280;3488;42.616;23.350;2023-02-12T06:08:05;62037.34;;;0.35;78.20
6899;BME280;3488;42.616;23.350;2023-02-12T06:10:32;62030.72;;;0.31;78.78
6899;BME280;3488;42.616;23.350;2023-02-12T06:12:59;62030.72;;;0.31;78.80
6899;BME280;3488;42.616;23.350;2023-02-12T06:15:28;62022.53;;;0.23;79.73
6899;BME280;3488;42.616;23.350;2023-02-12T06:17:56;62016.53;;;0.22;79.80
6899;BME280;3488;42.616;23.350;2023-02-12T06:20:23;62020.03;;;0.23;80.32
6899;BME280;3488;42.616;23.350;2023-02-12T06:22:50;62023.19;;;0.29;80.35
6899;BME280;3488;42.616;23.350;2023-02-12T06:25:17;62026.69;;;0.30;80.14
6899;BME280;3488;42.616;23.350;2023-02-12T06:27:44;62029.78;;;0.33;80.06
6899;BME280;3488;42.616;23.350;2023-02-12T06:30:12;62030.81;;;0.34;80.79
6899;BME280;3488;42.616;23.350;2023-02-12T06:32:41;62034.84;;;0.35;81.59
6899;BME280;3488;42.616;23.350;2023-02-12T06:35:08;62029.78;;;0.33;83.62
6899;BME280;3488;42.616;23.350;2023-02-12T06:37:35;62025.69;;;0.29;84.93
6899;BME280;3488;42.616;23.350;2023-02-12T06:40:04;62020.50;;;0.21;87.39
6899;BME280;3488;42.616;23.350;2023-02-12T06:42:32;62011.28;;;0.12;87.77
6899;BME280;3488;42.616;23.350;2023-02-12T06:44:58;62014.34;;;0.15;88.27
6899;BME280;3488;42.616;23.350;2023-02-12T06:47:26;62021.00;;;0.22;88.04
6899;BME280;3488;42.616;23.350;2023-02-12T06:49:54;62017.50;;;0.21;87.04
6899;BME280;3488;42.616;23.350;2023-02-12T06:52:21;62033.31;;;0.34;86.76
6899;BME280;3488;42.616;23.350;2023-02-12T06:54:48;62021.56;;;0.25;85.40
6899;BME280;3488;42.616;23.350;2023-02-12T06:57:16;62029.72;;;0.30;84.86
6899;BME280;3488;42.616;23.350;2023-02-12T06:59:43;62023.63;;;0.27;84.88
6899;BME280;3488;42.616;23.350;2023-02-12T07:02:11;62026.19;;;0.29;85.07
6899;BME280;3488;42.616;23.350;2023-02-12T07:04:38;62023.69;;;0.29;85.36
6899;BME280;3488;42.616;23.350;2023-02-12T07:07:07;62021.00;;;0.22;86.28
6899;BME280;3488;42.616;23.350;2023-02-12T07:09:35;62030.25;;;0.31;85.42
6899;BME280;3488;42.616;23.350;2023-02-12T07:12:02;62025.72;;;0.31;85.87
6899;BME280;3488;42.616;23.350;2023-02-12T07:14:29;62027.09;;;0.25;86.60
6899;BME280;3488;42.616;23.350;2023-02-12T07:16:56;62033.25;;;0.31;86.88
6899;BME280;3488;42.616;23.350;2023-02-12T07:19:24;62034.84;;;0.35;87.68
6899;BME280;3488;42.616;23.350;2023-02-12T07:21:51;62030.34;;;0.36;88.45
6899;BME280;3488;42.616;23.350;2023-02-12T07:24:19;62048.03;;;0.43;88.17
6899;BME280;3488;42.616;23.350;2023-02-12T07:26:46;62032.28;;;0.33;89.43
6899;BME280;3488;42.616;23.350;2023-02-12T07:29:13;62023.63;;;0.27;90.07
6899;BME280;3488;42.616;23.350;2023-02-12T07:31:40;62019.47;;;0.20;91.62
6899;BME280;3488;42.616;23.350;2023-02-12T07:34:08;62002.81;;;0.14;92.05
6899;BME280;3488;42.616;23.350;2023-02-12T07:36:35;62014.34;;;0.15;91.98
6899;BME280;3488;42.616;23.350;2023-02-12T07:39:04;62011.78;;;0.13;92.15
6899;BME280;3488;42.616;23.350;2023-02-12T07:41:34;61997.44;;;-0.02;93.38
6899;BME280;3488;42.616;23.350;2023-02-12T07:44:03;61994.94;;;-0.02;94.13
6899;BME280;3488;42.616;23.350;2023-02-12T07:46:34;61987.50;;;-0.19;95.23
6899;BME280;3488;42.616;23.350;2023-02-12T07:49:03;61987.13;;;-0.14;96.38
6899;BME280;3488;42.616;23.350;2023-02-12T07:51:32;61995.41;;;-0.04;96.18
6899;BME280;3488;42.616;23.350;2023-02-12T07:54:00;61974.31;;;-0.27;97.37
6899;BME280;3488;42.616;23.350;2023-02-12T07:56:28;61975.41;;;-0.23;98.27
6899;BME280;3488;42.616;23.350;2023-02-12T07:59:00;61964.13;;;-0.34;99.03
6899;BME280;3488;42.616;23.350;2023-02-12T08:01:28;61961.06;;;-0.37;100.00
6899;BME280;3488;42.616;23.350;2023-02-12T08:03:57;61975.94;;;-0.23;100.00
6899;BME280;3488;42.616;23.350;2023-02-12T08:06:28;61972.47;;;-0.21;100.00
6899;BME280;3488;42.616;23.350;2023-02-12T08:08:57;61958.44;;;-0.42;100.00
6899;BME280;3488;42.616;23.350;2023-02-12T08:11:25;61967.78;;;-0.28;100.00
6899;BME280;3488;42.616;23.350;2023-02-12T08:13:52;61990.25;;;-0.09;100.00
6899;BME280;3488;42.616;23.350;2023-02-12T08:16:23;61969.84;;;-0.26;100.00
6899;BME280;3488;42.616;23.350;2023-02-12T08:18:51;61982.06;;;-0.17;100.00
6899;BME280;3488;42.616;23.350;2023-02-12T08:21:20;61991.81;;;-0.07;100.00
6899;BME280;3488;42.616;23.350;2023-02-12T08:23:48;61982.63;;;-0.14;100.00
6899;BME280;3488;42.616;23.350;2023-02-12T08:26:18;61986.66;;;-0.12;100.00
6899;BME280;3488;42.616;23.350;2023-02-12T08:28:47;62012.19;;;0.08;100.00
6899;BME280;3488;42.616;23.350;2023-02-12T08:31:16;62019.03;;;0.22;100.00
6899;BME280;3488;42.616;23.350;2023-02-12T08:33:47;62035.34;;;0.36;99.74
6899;BME280;3488;42.616;23.350;2023-02-12T08:36:16;62037.91;;;0.38;99.51
6899;BME280;3488;42.616;23.350;2023-02-12T08:38:44;62042.47;;;0.40;99.53
6899;BME280;3488;42.616;23.350;2023-02-12T08:41:14;62003.59;;;0.05;100.00
6899;BME280;3488;42.616;23.350;2023-02-12T08:43:41;62019.53;;;0.23;100.00
6899;BME280;3488;42.616;23.350;2023-02-12T08:46:10;62039.00;;;0.42;100.00
6899;BME280;3488;42.616;23.350;2023-02-12T08:48:38;62047.16;;;0.47;100.00
6899;BME280;3488;42.616;23.350;2023-02-12T08:51:10;62027.72;;;0.31;100.00
6899;BME280;3488;42.616;23.350;2023-02-12T08:53:39;62014.50;;;0.23;100.00
6899;BME280;3488;42.616;23.350;2023-02-12T08:56:08;62025.16;;;0.28;100.00
6899;BME280;3488;42.616;23.350;2023-02-12T08:58:36;62039.00;;;0.42;100.00
6899;BME280;3488;42.616;23.350;2023-02-12T09:01:04;62055.34;;;0.55;99.76
6899;BME280;3488;42.616;23.350;2023-02-12T09:03:31;62053.88;;;0.56;99.37
6899;BME280;3488;42.616;23.350;2023-02-12T09:06:01;62046.19;;;0.49;99.56
6899;BME280;3488;42.616;23.350;2023-02-12T09:08:29;62050.72;;;0.51;99.41
6899;BME280;3488;42.616;23.350;2023-02-12T09:10:56;62049.72;;;0.50;99.33
6899;BME280;3488;42.616;23.350;2023-02-12T09:13:24;62045.19;;;0.50;99.43
6899;BME280;3488;42.616;23.350;2023-02-12T09:15:51;62057.34;;;0.55;99.44
6899;BME280;3488;42.616;23.350;2023-02-12T09:18:21;62068.13;;;0.65;98.95
6899;BME280;3488;42.616;23.350;2023-02-12T09:20:48;62076.88;;;0.76;98.30
6899;BME280;3488;42.616;23.350;2023-02-12T09:23:15;62067.72;;;0.70;98.12
6899;BME280;3488;42.616;23.350;2023-02-12T09:25:45;62068.22;;;0.70;98.40
6899;BME280;3488;42.616;23.350;2023-02-12T09:28:13;62073.88;;;0.76;99.18
6899;BME280;3488;42.616;23.350;2023-02-12T09:30:40;62076.81;;;0.74;99.18
6899;BME280;3488;42.616;23.350;2023-02-12T09:33:09;62068.22;;;0.70;98.68
6899;BME280;3488;42.616;23.350;2023-02-12T09:35:38;62075.78;;;0.73;99.52
6899;BME280;3488;42.616;23.350;2023-02-12T09:38:06;62071.22;;;0.71;98.58
6899;BME280;3488;42.616;23.350;2023-02-12T09:40:39;62079.91;;;0.77;98.97
6899;BME280;3488;42.616;23.350;2023-02-12T09:43:16;62089.63;;;0.86;98.28
6899;BME280;3488;42.616;23.350;2023-02-12T09:45:50;62084.69;;;0.89;97.63
6899;BME280;3488;42.616;23.350;2023-02-12T09:48:34;62084.13;;;0.86;97.57
6899;BME280;3488;42.616;23.350;2023-02-12T09:51:05;62080.91;;;0.78;98.86
6899;BME280;3488;42.616;23.350;2023-02-12T09:53:36;62082.06;;;0.84;97.47
6899;BME280;3488;42.616;23.350;2023-02-12T09:56:11;62074.31;;;0.74;97.59
6899;BME280;3488;42.616;23.350;2023-02-12T09:58:45;62082.59;;;0.84;98.11
6899;BME280;3488;42.616;23.350;2023-02-12T10:01:14;62058.53;;;0.63;98.54
6899;BME280;3488;42.616;23.350;2023-02-12T10:03:43;62074.81;;;0.74;99.48
6899;BME280;3488;42.616;23.350;2023-02-12T10:06:14;62066.22;;;0.71;99.70
6899;BME280;3488;42.616;23.350;2023-02-12T10:08:54;62073.72;;;0.71;100.00
6899;BME280;3488;42.616;23.350;2023-02-12T10:11:45;62109.19;;;1.08;98.56
6899;BME280;3488;42.616;23.350;2023-02-12T10:14:31;62140.47;;;1.39;96.23
6899;BME280;3488;42.616;23.350;2023-02-12T10:17:07;62162.53;;;1.60;94.72
6899;BME280;3488;42.616;23.350;2023-02-12T10:19:59;62186.09;;;1.81;93.11
6899;BME280;3488;42.616;23.350;2023-02-12T10:22:37;62178.47;;;1.76;92.50
6899;BME280;3488;42.616;23.350;2023-02-12T10:25:19;62179.88;;;1.72;93.39
6899;BME280;3488;42.616;23.350;2023-02-12T10:27:51;62168.25;;;1.68;93.61
6899;BME280;3488;42.616;23.350;2023-02-12T10:30:24;62173.78;;;1.69;93.38
6899;BME280;3488;42.616;23.350;2023-02-12T10:32:57;62155.38;;;1.53;94.02
6899;BME280;3488;42.616;23.350;2023-02-12T10:35:25;62148.69;;;1.47;94.91
6899;BME280;3488;42.616;23.350;2023-02-12T10:37:56;62111.19;;;1.07;97.59
6899;BME280;3488;42.616;23.350;2023-02-12T10:40:27;62109.63;;;1.06;98.70
6899;BME280;3488;42.616;23.350;2023-02-12T10:42:57;62063.56;;;0.63;100.00
6899;BME280;3488;42.616;23.350;2023-02-12T10:45:29;62082.63;;;0.87;100.00
6899;BME280;3488;42.616;23.350;2023-02-12T10:48:05;62102.69;;;1.09;99.54
6899;BME280;3488;42.616;23.350;2023-02-12T10:50:49;62130.16;;;1.26;98.65
6899;BME280;3488;42.616;23.350;2023-02-12T10:53:21;62142.06;;;1.43;97.38
6899;BME280;3488;42.616;23.350;2023-02-12T10:55:49;62164.13;;;1.64;96.04
6899;BME280;3488;42.616;23.350;2023-02-12T10:58:30;62170.81;;;1.71;95.90
6899;BME280;3488;42.616;23.350;2023-02-12T11:00:59;62187.19;;;1.84;94.82
6899;BME280;3488;42.616;23.350;2023-02-12T11:03:29;62190.88;;;1.93;94.57
6899;BME280;3488;42.616;23.350;2023-02-12T11:06:11;62187.22;;;1.87;94.15
6899;BME280;3488;42.616;23.350;2023-02-12T11:08:40;62202.06;;;1.99;94.32
6899;BME280;3488;42.616;23.350;2023-02-12T11:11:10;62185.69;;;1.85;93.86
6899;BME280;3488;42.616;23.350;2023-02-12T11:13:39;62213.28;;;2.07;93.51
6899;BME280;3488;42.616;23.350;2023-02-12T11:16:09;62212.91;;;2.12;92.70
6899;BME280;3488;42.616;23.350;2023-02-12T11:18:36;62225.13;;;2.19;92.54
6899;BME280;3488;42.616;23.350;2023-02-12T11:21:05;62239.09;;;2.38;91.55
6899;BME280;3488;42.616;23.350;2023-02-12T11:23:34;62252.50;;;2.53;90.53
6899;BME280;3488;42.616;23.350;2023-02-12T11:26:03;62267.78;;;2.63;89.38
6899;BME280;3488;42.616;23.350;2023-02-12T11:28:32;62256.47;;;2.52;89.04
6899;BME280;3488;42.616;23.350;2023-02-12T11:31:01;62232.81;;;2.26;91.98
6899;BME280;3488;42.616;23.350;2023-02-12T11:33:32;62250.34;;;2.46;91.60
6899;BME280;3488;42.616;23.350;2023-02-12T11:36:02;62290.97;;;2.88;89.63
6899;BME280;3488;42.616;23.350;2023-02-12T11:38:33;62303.81;;;3.01;87.61
6899;BME280;3488;42.616;23.350;2023-02-12T11:41:13;62331.97;;;3.23;87.23
6899;BME280;3488;42.616;23.350;2023-02-12T11:43:45;62352.59;;;3.46;84.02
6899;BME280;3488;42.616;23.350;2023-02-12T11:46:18;62361.84;;;3.55;81.83
6899;BME280;3488;42.616;23.350;2023-02-12T11:48:47;62351.59;;;3.47;82.68
6899;BME280;3488;42.616;23.350;2023-02-12T11:51:20;62364.41;;;3.58;82.64
6899;BME280;3488;42.616;23.350;2023-02-12T11:53:51;62349.50;;;3.43;83.20
6899;BME280;3488;42.616;23.350;2023-02-12T11:56:19;62269.34;;;2.65;87.53
6899;BME280;3488;42.616;23.350;2023-02-12T11:58:47;62280.63;;;2.76;88.71
6899;BME280;3488;42.616;23.350;2023-02-12T12:01:17;62261.06;;;2.54;90.31
6899;BME280;3488;42.616;23.350;2023-02-12T12:03:53;62290.84;;;2.83;88.65
6899;BME280;3488;42.616;23.350;2023-02-12T12:06:29;62296.13;;;2.93;87.84
6899;BME280;3488;42.616;23.350;2023-02-12T12:09:03;62309.91;;;3.04;86.14
6899;BME280;3488;42.616;23.350;2023-02-12T12:11:37;62319.69;;;3.14;85.51
6899;BME280;3488;42.616;23.350;2023-02-12T12:14:14;62320.72;;;3.15;86.04
6899;BME280;3488;42.616;23.350;2023-02-12T12:16:48;62344.47;;;3.43;85.15
6899;BME280;3488;42.616;23.350;2023-02-12T12:19:39;62347.38;;;3.38;82.43
6899;BME280;3488;42.616;23.350;2023-02-12T12:22:34;62353.09;;;3.46;83.00
6899;BME280;3488;42.616;23.350;2023-02-12T12:25:09;62365.94;;;3.59;81.10
6899;BME280;3488;42.616;23.350;2023-02-12T12:27:43;62380.84;;;3.74;79.92
6899;BME280;3488;42.616;23.350;2023-02-12T12:30:52;62393.66;;;3.84;78.34
6899;BME280;3488;42.616;23.350;2023-02-12T12:33:37;62387.53;;;3.80;77.51
6899;BME280;3488;42.616;23.350;2023-02-12T12:36:39;62349.53;;;3.45;80.33
6899;BME280;3488;42.616;23.350;2023-02-12T12:39:16;62373.09;;;3.64;78.53
6899;BME280;3488;42.616;23.350;2023-02-12T12:42:01;62389.03;;;3.79;78.32
6899;BME280;3488;42.616;23.350;2023-02-12T12:44:46;62287.31;;;2.82;81.87
6899;BME280;3488;42.616;23.350;2023-02-12T12:47:21;62312.03;;;3.09;82.91
6899;BME280;3488;42.616;23.350;2023-02-12T12:50:08;62291.44;;;2.86;82.29
6899;BME280;3488;42.616;23.350;2023-02-12T12:53:00;62267.72;;;2.61;86.63
6899;BME280;3488;42.616;23.350;2023-02-12T12:55:57;62298.09;;;2.93;85.40
6899;BME280;3488;42.616;23.350;2023-02-12T12:58:40;62336.09;;;3.27;83.01
6899;BME280;3488;42.616;23.350;2023-02-12T13:01:47;62356.06;;;3.44;80.90
6899;BME280;3488;42.616;23.350;2023-02-12T13:07:18;62348.00;;;3.44;79.51
6899;BME280;3488;42.616;23.350;2023-02-12T13:10:13;62317.69;;;3.14;81.81
6899;BME280;3488;42.616;23.350;2023-02-12T13:13:08;62318.19;;;3.15;82.18
6899;BME280;3488;42.616;23.350;2023-02-12T13:15:44;62328.88;;;3.20;82.35
6899;BME280;3488;42.616;23.350;2023-02-12T13:18:22;62311.97;;;3.06;81.74
6899;BME280;3488;42.616;23.350;2023-02-12T13:20:57;62327.91;;;3.22;80.96
6899;BME280;3488;42.616;23.350;2023-02-12T13:23:35;62298.72;;;2.98;82.41
6899;BME280;3488;42.616;23.350;2023-02-12T13:26:12;62318.13;;;3.12;81.94
6899;BME280;3488;42.616;23.350;2023-02-12T13:28:43;62317.13;;;3.11;81.29
6899;BME280;3488;42.616;23.350;2023-02-12T13:31:15;62314.66;;;3.14;81.81
6899;BME280;3488;42.616;23.350;2023-02-12T13:33:48;62310.97;;;3.05;82.54
6899;BME280;3488;42.616;23.350;2023-02-12T13:36:16;62303.75;;;2.98;83.44
6899;BME280;3488;42.616;23.350;2023-02-12T13:38:49;62307.34;;;3.02;83.75
6899;BME280;3488;42.616;23.350;2023-02-12T13:41:19;62314.03;;;3.08;84.53
6899;BME280;3488;42.616;23.350;2023-02-12T13:43:57;62316.56;;;3.08;84.44
6899;BME280;3488;42.616;23.350;2023-02-12T13:46:38;62307.84;;;3.02;84.95
6899;BME280;3488;42.616;23.350;2023-02-12T13:49:20;62309.88;;;3.02;85.38